Arroyo Hondo, New Mexico
Current Conditions -  °F | °C
As of 10:15 PM on Tuesday 25 Nov 2014 (Local Time) from KSKX Reporting Station
Clear Clear  
Wind Chill: 20°   Ceiling: Unl
Heat Index: 27°   Visibility: 10mi
Dew Point: 10°   Wind: 6mph
Humidity: 51%   Direction: 180°S
Pressure: 30.27"   Gusts: NA
Location:  36.53°N, 105.67°W
Report Text: KSKX 260515Z AUTO 18005KT 10SM CLR M03/M12 A3027 RMK AO1
Loading
Personal Weather Stations






























Interactive Weather Map New forecast layout! Learn more

10-Day Weather Forecast

Advertisements
Track Severe Weather on mobile